createdAt,value
2022-08-09T00:02:03.441Z,10.57
2022-08-09T00:04:35.547Z,10.54
2022-08-09T00:07:10.446Z,10.59
2022-08-09T00:09:42.296Z,10.58
2022-08-09T00:12:22.764Z,10.50
2022-08-09T00:14:56.667Z,10.41
2022-08-09T00:18:05.623Z,10.36
2022-08-09T00:20:15.806Z,10.28
2022-08-09T00:22:47.136Z,10.27
2022-08-09T00:25:23.507Z,10.26
2022-08-09T00:28:07.756Z,10.26
2022-08-09T00:30:40.631Z,10.19
2022-08-09T00:33:11.319Z,10.14
2022-08-09T00:35:43.723Z,10.08
2022-08-09T00:38:13.989Z,10.02
2022-08-09T00:40:52.809Z,9.95
2022-08-09T00:44:11.381Z,9.89
2022-08-09T00:46:44.107Z,9.83
2022-08-09T00:49:09.027Z,9.87
2022-08-09T00:51:42.830Z,9.86
2022-08-09T00:54:31.395Z,9.80
2022-08-09T00:57:10.787Z,9.72
2022-08-09T00:59:46.504Z,9.79
2022-08-09T01:02:22.157Z,9.82
2022-08-09T01:05:03.292Z,9.79
2022-08-09T01:07:59.993Z,9.68
2022-08-09T01:10:51.157Z,9.55
2022-08-09T01:13:53.471Z,9.50
2022-08-09T01:16:33.602Z,9.41
2022-08-09T01:19:40.293Z,9.41
2022-08-09T01:23:05.089Z,9.44
2022-08-09T01:26:26.745Z,9.42
2022-08-09T01:29:01.453Z,9.53
2022-08-09T01:32:30.681Z,9.56
2022-08-09T01:34:29.037Z,9.52
2022-08-09T01:37:06.886Z,9.46
2022-08-09T01:39:40.959Z,9.38
2022-08-09T01:42:12.625Z,9.26
2022-08-09T01:44:46.076Z,9.17
2022-08-09T01:47:18.910Z,9.13
2022-08-09T01:49:57.548Z,9.12
2022-08-09T01:52:29.944Z,9.05
2022-08-09T01:55:04.443Z,9.01
2022-08-09T01:57:45.852Z,8.97
2022-08-09T02:00:35.916Z,8.92
2022-08-09T02:03:13.542Z,8.85
2022-08-09T02:06:03.135Z,8.80
2022-08-09T02:08:59.061Z,8.76
2022-08-09T02:11:42.042Z,8.74
2022-08-09T02:14:26.348Z,8.74
2022-08-09T02:17:55.050Z,8.76
2022-08-09T02:19:50.237Z,8.96
2022-08-09T02:22:41.488Z,8.99
2022-08-09T02:25:22.224Z,9.00
2022-08-09T02:28:04.137Z,8.89
2022-08-09T02:30:42.694Z,8.80
2022-08-09T02:33:23.251Z,8.75
2022-08-09T02:36:14.437Z,8.86
2022-08-09T02:38:52.459Z,8.85
2022-08-09T02:41:31.942Z,8.77
2022-08-09T02:44:25.546Z,8.68
2022-08-09T02:47:04.232Z,8.64
2022-08-09T02:49:41.351Z,8.64
2022-08-09T02:52:18.462Z,8.69
2022-08-09T02:54:55.056Z,8.77
2022-08-09T02:57:29.398Z,8.72
2022-08-09T03:00:25.436Z,8.63
2022-08-09T03:03:00.340Z,8.56
2022-08-09T03:05:35.018Z,8.49
2022-08-09T03:08:09.862Z,8.49
2022-08-09T03:10:41.314Z,8.47
2022-08-09T03:13:19.176Z,8.48
2022-08-09T03:16:05.718Z,8.47
2022-08-09T03:18:38.398Z,8.63
2022-08-09T03:21:12.793Z,8.70
2022-08-09T03:23:44.461Z,8.73
2022-08-09T03:26:45.080Z,8.75
2022-08-09T03:29:23.552Z,8.77
2022-08-09T03:31:59.645Z,8.75
2022-08-09T03:34:30.576Z,8.71
2022-08-09T03:37:10.722Z,8.62
2022-08-09T03:39:55.550Z,8.53
2022-08-09T03:42:28.880Z,8.45
2022-08-09T03:44:57.624Z,8.41
2022-08-09T03:47:26.955Z,8.43
2022-08-09T03:49:59.347Z,8.39
2022-08-09T03:52:32.799Z,8.35
2022-08-09T03:55:09.783Z,8.42
2022-08-09T03:57:53.578Z,8.46
2022-08-09T04:00:30.722Z,8.50
2022-08-09T04:03:02.791Z,8.51
2022-08-09T04:05:40.558Z,8.49
2022-08-09T04:08:13.307Z,8.51
2022-08-09T04:10:43.215Z,8.55
2022-08-09T04:13:23.627Z,8.58
2022-08-09T04:16:19.313Z,8.62
2022-08-09T04:18:51.098Z,8.65
2022-08-09T04:21:20.882Z,8.69
2022-08-09T04:23:54.148Z,8.71
2022-08-09T04:26:38.177Z,8.74
2022-08-09T04:29:14.819Z,8.79
2022-08-09T04:31:47.637Z,8.86
2022-08-09T04:34:19.171Z,8.92
2022-08-09T04:37:00.635Z,8.97
2022-08-09T04:39:31.482Z,9.04
2022-08-09T04:42:02.804Z,9.07
2022-08-09T04:44:32.064Z,9.13
2022-08-09T04:47:04.306Z,9.21
2022-08-09T04:49:53.118Z,9.27
2022-08-09T04:52:27.442Z,9.37
2022-08-09T04:55:01.574Z,9.49
2022-08-09T04:57:54.357Z,9.56
2022-08-09T05:00:21.078Z,9.68
2022-08-09T05:02:52.601Z,9.83
2022-08-09T05:05:32.063Z,9.99
2022-08-09T05:08:13.959Z,10.22
2022-08-09T05:10:46.741Z,10.44
2022-08-09T05:13:16.543Z,10.58
2022-08-09T05:15:52.283Z,10.73
2022-08-09T05:18:39.659Z,10.84
2022-08-09T05:21:22.761Z,10.95
2022-08-09T05:24:00.334Z,11.25
2022-08-09T05:26:41.105Z,11.82
2022-08-09T05:29:21.749Z,12.48
2022-08-09T05:31:57.435Z,13.11
2022-08-09T05:34:31.067Z,13.29
2022-08-09T05:37:06.170Z,13.46
2022-08-09T05:39:43.188Z,14.39
2022-08-09T05:42:28.197Z,15.77
2022-08-09T05:45:06.018Z,17.12
2022-08-09T05:47:51.743Z,18.59
2022-08-09T05:50:50.502Z,19.96
2022-08-09T05:53:33.219Z,21.03
2022-08-09T05:56:12.443Z,21.92
2022-08-09T05:58:47.846Z,22.79
2022-08-09T06:01:19.714Z,23.50
2022-08-09T06:03:58.114Z,24.34
2022-08-09T06:06:29.650Z,25.17
2022-08-09T06:09:02.060Z,25.64
2022-08-09T06:11:41.177Z,25.54
2022-08-09T06:14:31.580Z,26.15
2022-08-09T06:17:04.994Z,26.63
2022-08-09T06:19:42.505Z,27.24
2022-08-09T06:22:15.195Z,27.53
2022-08-09T06:24:48.018Z,28.02
2022-08-09T06:27:41.354Z,28.26
2022-08-09T06:30:19.414Z,28.64
2022-08-09T06:33:00.466Z,29.11
2022-08-09T06:35:57.701Z,29.50
2022-08-09T06:38:32.256Z,29.70
2022-08-09T06:41:18.940Z,29.65
2022-08-09T06:43:50.480Z,29.74
2022-08-09T06:46:39.690Z,29.66
2022-08-09T06:49:11.125Z,29.50
2022-08-09T06:51:52.354Z,30.11
2022-08-09T06:54:26.308Z,30.22
2022-08-09T06:56:56.255Z,29.30
2022-08-09T07:00:54.267Z,30.25
2022-08-09T07:02:29.412Z,30.34
2022-08-09T07:05:07.614Z,29.45
2022-08-09T07:07:59.878Z,28.03
2022-08-09T07:10:31.449Z,29.32
2022-08-09T07:13:05.413Z,29.85
2022-08-09T07:16:35.205Z,30.14
2022-08-09T07:18:44.766Z,29.81
2022-08-09T07:21:20.791Z,29.96
2022-08-09T07:23:57.735Z,29.16
2022-08-09T07:26:33.565Z,28.77
2022-08-09T07:29:08.558Z,28.89
2022-08-09T07:31:45.443Z,29.92
2022-08-09T07:34:25.720Z,30.68
2022-08-09T07:36:56.308Z,29.88
2022-08-09T07:39:40.842Z,29.41
2022-08-09T07:42:11.877Z,29.55
2022-08-09T07:44:55.381Z,29.25
2022-08-09T07:47:49.575Z,29.52
2022-08-09T07:50:34.852Z,30.79
2022-08-09T07:53:10.680Z,30.80
2022-08-09T07:56:03.378Z,30.54
2022-08-09T07:58:39.473Z,30.41
2022-08-09T08:01:11.364Z,29.96
2022-08-09T08:03:42.544Z,29.68
2022-08-09T08:06:15.686Z,29.66
2022-08-09T08:09:03.830Z,30.63
2022-08-09T08:12:11.533Z,29.87
2022-08-09T08:14:33.309Z,30.04
2022-08-09T08:17:11.994Z,30.53
2022-08-09T08:19:45.250Z,31.14
2022-08-09T08:22:24.233Z,30.94
2022-08-09T08:24:58.103Z,31.98
2022-08-09T08:27:40.441Z,31.29
2022-08-09T08:30:18.201Z,28.92
2022-08-09T08:32:52.455Z,27.18
2022-08-09T08:35:23.322Z,28.09
2022-08-09T08:38:04.670Z,28.53
2022-08-09T08:40:43.078Z,30.02
2022-08-09T08:43:23.109Z,30.69
2022-08-09T08:46:10.058Z,31.82
2022-08-09T08:48:54.147Z,32.17
2022-08-09T08:51:38.874Z,30.88
2022-08-09T08:54:20.462Z,29.60
2022-08-09T08:57:00.140Z,29.52
2022-08-09T08:59:46.791Z,29.22
2022-08-09T09:02:31.368Z,28.84
2022-08-09T09:05:09.943Z,28.13
2022-08-09T09:07:51.806Z,28.78
2022-08-09T09:10:27.493Z,29.04
2022-08-09T09:13:09.317Z,29.59
2022-08-09T09:16:10.902Z,30.20
2022-08-09T09:18:43.352Z,30.45
2022-08-09T09:21:18.189Z,30.29
2022-08-09T09:24:05.324Z,30.67
2022-08-09T09:27:00.803Z,29.20
2022-08-09T09:30:11.507Z,29.43
2022-08-09T09:32:39.446Z,29.60
2022-08-09T09:35:15.832Z,29.88
2022-08-09T09:37:48.678Z,30.14
2022-08-09T09:40:22.098Z,30.57
2022-08-09T09:42:59.858Z,29.95
2022-08-09T09:46:39.007Z,30.82
2022-08-09T09:48:43.840Z,30.88
2022-08-09T09:51:26.038Z,30.95
2022-08-09T09:54:20.259Z,30.35
2022-08-09T09:58:03.081Z,30.65
2022-08-09T09:59:54.480Z,30.99
2022-08-09T10:02:27.107Z,31.00
2022-08-09T10:05:07.915Z,30.63
2022-08-09T10:08:11.306Z,30.01
2022-08-09T10:10:40.913Z,30.22
2022-08-09T10:13:12.188Z,30.35
2022-08-09T10:16:54.512Z,30.28
2022-08-09T10:19:02.179Z,30.29
2022-08-09T10:21:39.022Z,30.24
2022-08-09T10:24:15.841Z,30.07
2022-08-09T10:26:49.477Z,30.34
2022-08-09T10:30:08.401Z,30.40
2022-08-09T10:32:38.579Z,28.69
2022-08-09T10:35:14.235Z,29.19
2022-08-09T10:37:48.316Z,28.89
2022-08-09T10:40:33.768Z,29.11
2022-08-09T10:43:13.036Z,29.15
2022-08-09T10:45:51.775Z,29.20
2022-08-09T10:48:44.249Z,29.32
2022-08-09T10:51:48.898Z,29.19
2022-08-09T10:54:29.601Z,29.70
2022-08-09T10:57:14.088Z,29.43
2022-08-09T10:59:57.673Z,29.39
2022-08-09T11:03:15.241Z,29.34
2022-08-09T11:05:38.386Z,29.02
2022-08-09T11:08:51.263Z,28.75
2022-08-09T11:11:25.531Z,28.25
2022-08-09T11:14:34.635Z,28.24
2022-08-09T11:17:09.028Z,28.24
2022-08-09T11:20:10.199Z,28.22
2022-08-09T11:23:07.230Z,28.10
2022-08-09T11:25:54.685Z,28.34
2022-08-09T11:28:55.785Z,28.04
2022-08-09T11:31:53.050Z,28.11
2022-08-09T11:34:48.395Z,27.72
2022-08-09T11:37:40.930Z,27.78
2022-08-09T11:40:29.204Z,27.81
2022-08-09T11:43:01.390Z,27.96
2022-08-09T11:45:43.090Z,27.88
2022-08-09T11:48:26.606Z,28.15
2022-08-09T11:53:03.627Z,28.61
2022-08-09T11:54:27.555Z,28.41
2022-08-09T11:57:47.973Z,27.97
2022-08-09T12:00:32.640Z,28.27
2022-08-09T12:03:40.972Z,28.37
2022-08-09T12:05:57.711Z,28.61
2022-08-09T12:08:30.513Z,28.91
2022-08-09T12:11:04.796Z,28.92
2022-08-09T12:14:10.483Z,28.05
2022-08-09T12:16:43.013Z,28.58
2022-08-09T12:19:14.947Z,26.64
2022-08-09T12:21:51.541Z,28.22
2022-08-09T12:24:28.083Z,28.00
2022-08-09T12:29:10.357Z,28.37
2022-08-09T12:30:00.145Z,29.07
2022-08-09T12:32:34.851Z,29.38
2022-08-09T12:35:16.973Z,29.22
2022-08-09T12:37:51.637Z,28.65
2022-08-09T12:40:27.152Z,28.81
2022-08-09T12:42:57.726Z,28.71
2022-08-09T12:45:34.408Z,29.64
2022-08-09T12:48:20.257Z,29.97
2022-08-09T12:51:03.995Z,29.91
2022-08-09T12:53:41.028Z,30.00
2022-08-09T12:56:39.519Z,30.26
2022-08-09T12:59:13.998Z,30.81
2022-08-09T13:02:02.917Z,30.80
2022-08-09T13:04:36.520Z,30.13
2022-08-09T13:07:19.906Z,30.16
2022-08-09T13:10:06.095Z,29.76
2022-08-09T13:12:40.069Z,29.56
2022-08-09T13:15:25.338Z,28.94
2022-08-09T13:18:17.582Z,29.66
2022-08-09T13:21:03.935Z,29.31
2022-08-09T13:24:06.563Z,29.53
2022-08-09T13:26:42.633Z,28.45
2022-08-09T13:29:16.457Z,29.23
2022-08-09T13:32:16.212Z,30.38
2022-08-09T13:34:52.003Z,30.02
2022-08-09T13:37:50.548Z,30.34
2022-08-09T13:41:51.142Z,30.14
2022-08-09T13:43:05.313Z,29.60
2022-08-09T13:46:42.676Z,29.45
2022-08-09T13:48:30.887Z,30.01
2022-08-09T13:51:04.577Z,29.73
2022-08-09T13:53:44.597Z,30.57
2022-08-09T13:56:14.108Z,30.18
2022-08-09T13:58:48.706Z,30.07
2022-08-09T14:01:56.722Z,29.10
2022-08-09T14:04:11.521Z,29.97
2022-08-09T14:07:07.067Z,30.50
2022-08-09T14:09:36.558Z,30.56
2022-08-09T14:12:15.583Z,30.19
2022-08-09T14:14:47.290Z,29.98
2022-08-09T14:17:23.015Z,29.90
2022-08-09T14:19:52.865Z,29.41
2022-08-09T14:22:25.369Z,29.11
2022-08-09T14:24:54.840Z,28.83
2022-08-09T14:27:24.053Z,28.19
2022-08-09T14:30:15.342Z,28.91
2022-08-09T14:32:48.491Z,28.38
2022-08-09T14:35:18.589Z,29.40
2022-08-09T14:38:02.711Z,29.95
2022-08-09T14:41:00.878Z,30.40
2022-08-09T14:43:24.914Z,31.04
2022-08-09T14:46:57.105Z,31.61
2022-08-09T14:49:10.529Z,31.08
2022-08-09T14:51:42.553Z,30.65
2022-08-09T14:54:16.879Z,30.79
2022-08-09T14:56:57.316Z,31.24
2022-08-09T14:59:28.554Z,31.22
2022-08-09T15:01:57.571Z,31.03
2022-08-09T15:04:30.612Z,30.77
2022-08-09T15:06:59.455Z,31.19
2022-08-09T15:10:04.578Z,31.61
2022-08-09T15:12:23.299Z,31.04
2022-08-09T15:14:52.015Z,31.01
2022-08-09T15:17:21.678Z,30.44
2022-08-09T15:19:59.082Z,30.94
2022-08-09T15:22:30.014Z,30.59
2022-08-09T15:25:04.055Z,30.35
2022-08-09T15:27:47.441Z,30.53
2022-08-09T15:30:58.381Z,30.93
2022-08-09T15:33:15.173Z,31.44
2022-08-09T15:35:57.290Z,32.08
2022-08-09T15:38:34.032Z,31.94
2022-08-09T15:41:09.552Z,31.15
2022-08-09T15:43:43.229Z,30.93
2022-08-09T15:46:18.829Z,30.20
2022-08-09T15:49:21.860Z,30.89
2022-08-09T15:52:04.554Z,30.77
2022-08-09T15:54:49.048Z,31.01
2022-08-09T15:57:35.029Z,30.62
2022-08-09T16:00:25.315Z,30.50
2022-08-09T16:02:57.238Z,31.26
2022-08-09T16:05:47.724Z,31.50
2022-08-09T16:08:29.969Z,30.88
2022-08-09T16:11:02.362Z,29.80
2022-08-09T16:14:04.642Z,29.52
2022-08-09T16:16:29.487Z,29.30
2022-08-09T16:18:59.029Z,30.19
2022-08-09T16:22:15.619Z,30.31
2022-08-09T16:24:45.447Z,30.63
2022-08-09T16:27:26.432Z,31.33
2022-08-09T16:30:02.625Z,30.42
2022-08-09T16:32:54.482Z,29.04
2022-08-09T16:35:55.666Z,29.49
2022-08-09T16:38:14.887Z,29.02
2022-08-09T16:40:48.228Z,29.25
2022-08-09T16:43:18.189Z,29.36
2022-08-09T16:45:53.782Z,28.73
2022-08-09T16:48:39.961Z,28.84
2022-08-09T16:51:16.993Z,28.98
2022-08-09T16:54:25.156Z,29.44
2022-08-09T16:56:49.006Z,28.37
2022-08-09T16:59:18.571Z,28.72
2022-08-09T17:01:52.982Z,28.27
2022-08-09T17:04:25.741Z,28.06
2022-08-09T17:08:41.493Z,28.63
2022-08-09T17:09:49.024Z,28.92
2022-08-09T17:12:19.801Z,29.08
2022-08-09T17:14:54.851Z,28.06
2022-08-09T17:17:27.918Z,28.25
2022-08-09T17:20:32.767Z,28.36
2022-08-09T17:22:49.829Z,28.09
2022-08-09T17:25:22.016Z,27.87
2022-08-09T17:27:54.051Z,27.94
2022-08-09T17:30:25.774Z,28.33
2022-08-09T17:33:01.387Z,27.42
2022-08-09T17:35:41.000Z,26.31
2022-08-09T17:38:31.026Z,26.51
2022-08-09T17:41:04.144Z,26.29
2022-08-09T17:43:37.381Z,26.10
2022-08-09T17:46:09.071Z,25.90
2022-08-09T17:48:51.545Z,26.36
2022-08-09T17:51:23.311Z,26.86
2022-08-09T17:53:55.770Z,26.51
2022-08-09T17:56:35.747Z,26.43
2022-08-09T17:59:11.343Z,25.98
2022-08-09T18:02:06.108Z,25.78
2022-08-09T18:04:36.134Z,25.93
2022-08-09T18:07:07.692Z,26.00
2022-08-09T18:09:41.912Z,25.77
2022-08-09T18:12:17.147Z,25.49
2022-08-09T18:14:54.547Z,25.19
2022-08-09T18:18:02.089Z,24.40
2022-08-09T18:20:55.323Z,23.77
2022-08-09T18:24:08.683Z,23.10
2022-08-09T18:25:58.988Z,22.13
2022-08-09T18:30:40.109Z,21.92
2022-08-09T18:31:32.197Z,21.55
2022-08-09T18:34:09.182Z,21.23
2022-08-09T18:36:40.364Z,20.82
2022-08-09T18:39:16.181Z,20.32
2022-08-09T18:41:52.702Z,19.88
2022-08-09T18:44:25.564Z,19.47
2022-08-09T18:47:08.221Z,19.09
2022-08-09T18:49:46.746Z,18.60
2022-08-09T18:52:24.791Z,18.23
2022-08-09T18:55:00.569Z,17.96
2022-08-09T18:57:38.698Z,17.77
2022-08-09T19:00:19.924Z,17.54
2022-08-09T19:02:54.275Z,17.33
2022-08-09T19:06:02.149Z,17.11
2022-08-09T19:08:23.900Z,16.88
2022-08-09T19:10:57.533Z,16.72
2022-08-09T19:13:38.407Z,16.57
2022-08-09T19:16:20.971Z,16.41
2022-08-09T19:18:50.967Z,16.30
2022-08-09T19:21:47.726Z,16.23
2022-08-09T19:24:36.259Z,16.10
2022-08-09T19:27:11.173Z,15.98
2022-08-09T19:30:20.842Z,15.86
2022-08-09T19:32:34.827Z,15.71
2022-08-09T19:35:06.923Z,15.54
2022-08-09T19:37:54.438Z,15.39
2022-08-09T19:40:34.188Z,15.28
2022-08-09T19:43:16.268Z,15.20
2022-08-09T19:45:57.385Z,15.16
2022-08-09T19:49:00.624Z,15.06
2022-08-09T19:51:16.961Z,14.93
2022-08-09T19:53:47.900Z,14.87
2022-08-09T19:56:28.704Z,14.84
2022-08-09T19:59:39.311Z,14.77
2022-08-09T20:02:03.414Z,14.68
2022-08-09T20:04:40.776Z,14.57
2022-08-09T20:07:21.222Z,14.49
2022-08-09T20:09:51.117Z,14.43
2022-08-09T20:12:29.865Z,14.36
2022-08-09T20:15:10.337Z,14.31
2022-08-09T20:18:00.312Z,14.27
2022-08-09T20:20:32.740Z,14.21
2022-08-09T20:23:02.002Z,14.15
2022-08-09T20:25:30.857Z,14.09
2022-08-09T20:28:27.586Z,14.02
2022-08-09T20:31:04.889Z,13.95
2022-08-09T20:33:41.244Z,13.94
2022-08-09T20:36:15.113Z,13.96
2022-08-09T20:39:28.061Z,13.94
2022-08-09T20:41:39.090Z,13.94
2022-08-09T20:44:10.734Z,13.86
2022-08-09T20:46:42.815Z,13.75
2022-08-09T20:49:15.739Z,13.68
2022-08-09T20:51:50.516Z,13.62
2022-08-09T20:54:20.740Z,13.56
2022-08-09T20:56:53.890Z,13.53
2022-08-09T21:00:19.157Z,13.59
2022-08-09T21:02:17.488Z,13.59
2022-08-09T21:05:54.030Z,13.51
2022-08-09T21:07:40.362Z,13.39
2022-08-09T21:10:12.061Z,13.29
2022-08-09T21:15:34.627Z,13.13
2022-08-09T21:18:20.875Z,13.04
2022-08-09T21:20:56.047Z,12.95
2022-08-09T21:23:26.492Z,12.87
2022-08-09T21:26:15.463Z,12.80
2022-08-09T21:28:55.835Z,12.79
2022-08-09T21:31:49.469Z,12.75
2022-08-09T21:34:28.822Z,12.77
2022-08-09T21:36:58.848Z,12.89
2022-08-09T21:39:42.058Z,12.96
2022-08-09T21:42:12.833Z,12.89
2022-08-09T21:44:47.411Z,12.80
2022-08-09T21:47:19.301Z,12.71
2022-08-09T21:49:54.688Z,12.72
2022-08-09T21:52:26.734Z,12.70
2022-08-09T21:55:03.926Z,12.70
2022-08-09T21:57:38.413Z,12.69
2022-08-09T22:00:31.662Z,12.70
2022-08-09T22:03:19.370Z,12.63
2022-08-09T22:05:54.754Z,12.51
2022-08-09T22:08:27.278Z,12.43
2022-08-09T22:11:49.991Z,12.36
2022-08-09T22:13:48.261Z,12.29
2022-08-09T22:16:19.476Z,12.32
2022-08-09T22:18:54.190Z,12.41
2022-08-09T22:21:27.516Z,12.33
2022-08-09T22:24:17.161Z,12.24
2022-08-09T22:26:51.719Z,12.15
2022-08-09T22:29:28.894Z,12.14
2022-08-09T22:32:29.410Z,12.15
2022-08-09T22:35:06.257Z,12.14
2022-08-09T22:37:44.861Z,12.09
2022-08-09T22:40:19.925Z,12.09
2022-08-09T22:42:50.883Z,12.01
2022-08-09T22:48:18.624Z,11.93
2022-08-09T22:48:29.993Z,11.84
2022-08-09T22:51:01.467Z,11.80
2022-08-09T22:53:44.338Z,11.75
2022-08-09T22:56:32.860Z,11.67
2022-08-09T22:59:05.815Z,11.60
2022-08-09T23:01:53.103Z,11.54
2022-08-09T23:04:25.950Z,11.50
2022-08-09T23:07:16.367Z,11.48
2022-08-09T23:09:45.730Z,11.43
2022-08-09T23:12:16.613Z,11.39
2022-08-09T23:14:45.778Z,11.35
2022-08-09T23:17:17.841Z,11.34
2022-08-09T23:20:06.771Z,11.34
2022-08-09T23:22:39.377Z,11.33
2022-08-09T23:25:13.576Z,11.38
2022-08-09T23:28:14.710Z,11.35
2022-08-09T23:30:32.015Z,11.31
2022-08-09T23:33:08.280Z,11.35
2022-08-09T23:36:06.603Z,11.32
2022-08-09T23:38:29.757Z,11.33
2022-08-09T23:41:00.756Z,11.27
2022-08-09T23:43:31.013Z,11.21
2022-08-09T23:46:03.400Z,11.14
2022-08-09T23:48:36.769Z,11.09
2022-08-09T23:51:07.665Z,11.07
2022-08-09T23:53:39.033Z,11.08
2022-08-09T23:56:08.714Z,11.03
2022-08-09T23:58:37.914Z,11.00
